Time;durP1;ratioP1;P1;durP2;ratioP2;P2;SDS_P1;SDS_P2;PMS_P1;PMS_P2;Temp;Humidity;BMP_temperature;BMP_pressure;BME280_temperature;BME280_humidity;BME280_pressure;Samples;Min_cycle;Max_cycle;Signal;HPM_P1;HPM_P2
2021/11/29 00:01:44;;;;;;;26.40;18.70;;;2.50;83.70;;;0.33;97.24;94237.41;4929651;28;20048;-66
2021/11/29 00:04:09;;;;;;;30.15;19.80;;;2.60;83.70;;;0.34;96.79;94241.59;4896966;29;20118;-66
2021/11/29 00:06:35;;;;;;;26.42;19.65;;;2.60;83.60;;;0.37;96.97;94240.44;4937654;28;20042;-66
2021/11/29 00:09:01;;;;;;;25.77;18.65;;;2.60;83.30;;;0.35;96.69;94245.00;4930309;28;20067;-67
2021/11/29 00:11:27;;;;;;;29.00;20.40;;;2.60;83.60;;;0.39;96.73;94244.47;4899021;29;20587;-66
2021/11/29 00:13:53;;;;;;;27.67;19.65;;;2.70;83.40;;;0.40;96.95;94251.25;4937119;28;20036;-67
2021/11/29 00:16:18;;;;;;;26.98;18.65;;;2.60;83.30;;;0.39;97.11;94252.22;4913978;29;20364;-66
2021/11/29 00:18:44;;;;;;;33.03;20.20;;;2.60;83.30;;;0.38;96.89;94245.44;4933850;28;20503;-67
2021/11/29 00:21:11;;;;;;;28.58;19.73;;;2.60;83.40;;;0.42;96.79;94256.25;4897692;29;20042;-67
2021/11/29 00:23:37;;;;;;;29.25;20.10;;;2.70;83.40;;;0.42;96.16;94257.06;4928983;29;20055;-66
2021/11/29 00:26:03;;;;;;;28.08;19.73;;;2.70;83.40;;;0.43;96.50;94263.84;4935478;28;20264;-67
2021/11/29 00:28:29;;;;;;;26.58;19.90;;;2.70;83.50;;;0.42;96.50;94267.41;4922506;29;20047;-67
2021/11/29 00:30:55;;;;;;;29.23;19.85;;;2.70;83.20;;;0.44;97.03;94265.44;4882365;28;20503;-67
2021/11/29 00:33:21;;;;;;;26.92;19.70;;;2.70;83.20;;;0.46;96.26;94262.72;4915865;29;20031;-67
2021/11/29 00:35:46;;;;;;;28.55;20.17;;;2.70;83.20;;;0.47;97.09;94270.28;4910372;29;20131;-67
2021/11/29 00:38:12;;;;;;;26.85;19.30;;;2.70;83.20;;;0.44;96.19;94265.44;4931547;28;20071;-67
2021/11/29 00:40:39;;;;;;;30.15;19.85;;;2.60;83.00;;;0.43;95.94;94274.19;4912614;29;20406;-66
2021/11/29 00:43:05;;;;;;;27.42;19.27;;;2.60;83.00;;;0.41;96.14;94270.97;4936520;28;20501;-66
2021/11/29 00:45:31;;;;;;;25.77;19.08;;;2.50;83.10;;;0.40;95.84;94278.88;4901931;29;21808;-66
2021/11/29 00:47:56;;;;;;;27.67;19.60;;;2.60;83.20;;;0.41;96.20;94285.66;4942095;28;20036;-66
2021/11/29 00:50:22;;;;;;;27.40;18.80;;;2.60;83.00;;;0.38;96.22;94292.00;4937116;28;20043;-66
2021/11/29 00:52:48;;;;;;;27.80;19.40;;;2.60;83.10;;;0.35;96.22;94286.38;4924434;28;20038;-66
2021/11/29 00:55:15;;;;;;;28.30;18.85;;;2.60;83.20;;;0.38;96.29;94297.16;4904525;29;20028;-67
2021/11/29 00:57:41;;;;;;;29.15;20.65;;;2.60;83.40;;;0.37;95.84;94298.16;4945450;28;20086;-66
2021/11/29 01:00:11;;;;;;;26.95;19.65;;;2.60;83.40;;;0.35;96.67;94287.16;4936818;28;20107;-67
2021/11/29 01:02:37;;;;;;;31.27;20.15;;;2.60;83.60;;;0.36;96.55;94291.38;4907464;29;20043;-67
2021/11/29 01:05:03;;;;;;;26.10;18.02;;;2.50;83.60;;;0.34;96.63;94288.16;4942636;28;20099;-67
2021/11/29 01:07:29;;;;;;;25.77;19.08;;;2.50;83.40;;;0.35;96.26;94292.34;4927783;29;20511;-67
2021/11/29 01:09:54;;;;;;;25.63;18.73;;;2.60;83.50;;;0.36;96.97;94295.72;4926012;29;20067;-67
2021/11/29 01:12:20;;;;;;;26.92;19.60;;;2.60;83.50;;;0.33;96.59;94294.28;4935243;28;20083;-67
2021/11/29 01:14:46;;;;;;;27.25;18.83;;;2.60;83.20;;;0.33;96.59;94293.50;4917090;28;20119;-67
2021/11/29 01:17:12;;;;;;;25.67;18.83;;;2.60;83.20;;;0.33;96.33;94296.06;4913520;29;20069;-67
2021/11/29 01:19:38;;;;;;;27.10;19.00;;;2.60;83.20;;;0.34;96.43;94295.91;4925187;28;20071;-67
2021/11/29 01:22:04;;;;;;;24.55;18.08;;;2.60;82.90;;;0.31;96.70;94296.25;4909953;28;20122;-68
2021/11/29 01:24:30;;;;;;;26.98;18.67;;;2.60;82.70;;;0.30;96.19;94299.81;4938725;28;20043;-67
2021/11/29 01:26:55;;;;;;;26.23;19.00;;;2.50;82.70;;;0.24;95.62;94290.16;4930431;28;20114;-67
2021/11/29 01:29:21;;;;;;;25.80;18.33;;;2.50;82.50;;;0.24;95.85;94300.50;4922561;29;20756;-67
2021/11/29 01:31:47;;;;;;;26.55;19.38;;;2.40;82.50;;;0.21;95.49;94300.81;4919027;29;20046;-67
2021/11/29 01:34:13;;;;;;;28.58;19.02;;;2.40;82.70;;;0.18;95.76;94298.56;4944120;28;20516;-67
2021/11/29 01:36:39;;;;;;;26.67;18.65;;;2.40;82.70;;;0.12;95.73;94299.25;4903669;29;20039;-67
2021/11/29 01:39:05;;;;;;;26.88;19.38;;;2.30;82.60;;;0.11;95.50;94300.22;4934745;28;20413;-67
2021/11/29 01:41:31;;;;;;;25.27;19.20;;;2.30;82.60;;;0.09;95.52;94302.19;4933626;28;20027;-67
2021/11/29 01:43:56;;;;;;;26.30;19.15;;;2.30;82.50;;;0.06;95.24;94305.91;4931500;28;20034;-67
2021/11/29 01:46:22;;;;;;;26.83;18.05;;;2.20;82.60;;;0.04;95.67;94309.66;4925618;29;20570;-67
2021/11/29 01:48:48;;;;;;;26.77;18.23;;;2.20;82.40;;;0.01;94.87;94307.41;4936072;28;20449;-67
2021/11/29 01:51:14;;;;;;;24.50;17.40;;;2.20;82.60;;;-0.03;95.21;94310.28;4940123;28;20530;-67
2021/11/29 01:53:40;;;;;;;25.45;18.83;;;2.20;82.50;;;-0.08;95.05;94302.25;4936684;28;20083;-67
2021/11/29 01:56:06;;;;;;;27.77;17.42;;;2.10;82.60;;;-0.10;95.13;94303.38;4931178;28;20067;-67
2021/11/29 01:58:33;;;;;;;25.73;18.25;;;2.10;82.50;;;-0.12;95.27;94306.13;4931113;28;20040;-67
2021/11/29 02:01:02;;;;;;;25.45;18.20;;;2.10;82.50;;;-0.16;95.09;94306.66;4935310;28;20036;-67
2021/11/29 02:03:28;;;;;;;24.83;17.83;;;2.00;82.60;;;-0.20;95.23;94316.50;4906363;29;20063;-67
2021/11/29 02:05:54;;;;;;;25.60;17.95;;;2.00;82.70;;;-0.24;95.06;94312.63;4937330;28;20075;-66
2021/11/29 02:08:20;;;;;;;26.98;18.88;;;1.90;82.90;;;-0.27;95.34;94312.97;4907513;29;20032;-67
2021/11/29 02:10:46;;;;;;;24.27;17.60;;;1.90;82.80;;;-0.26;94.99;94311.19;4921404;28;20083;-67
2021/11/29 02:13:11;;;;;;;24.38;17.73;;;1.90;83.00;;;-0.30;95.03;94313.31;4898299;29;20044;-68
2021/11/29 02:15:40;;;;;;;27.35;18.77;;;1.90;83.00;;;-0.34;95.34;94317.19;4929197;28;20075;-67
2021/11/29 02:18:06;;;;;;;23.65;17.52;;;1.90;82.90;;;-0.35;94.98;94320.75;4922926;28;20130;-67
2021/11/29 02:20:34;;;;;;;25.58;18.55;;;1.80;82.90;;;-0.40;95.32;94323.84;4918021;29;20035;-67
2021/11/29 02:23:00;;;;;;;27.20;18.08;;;1.80;82.90;;;-0.42;95.34;94320.63;4909609;28;20132;-67
2021/11/29 02:25:26;;;;;;;24.92;17.98;;;1.80;82.80;;;-0.43;95.07;94325.94;4923725;29;20125;-67
2021/11/29 02:27:52;;;;;;;26.67;17.80;;;1.70;82.90;;;-0.47;95.42;94327.22;4918590;29;20416;-67
2021/11/29 02:30:19;;;;;;;26.15;17.92;;;1.70;82.90;;;-0.49;95.38;94329.16;4900735;29;20054;-67
2021/11/29 02:32:45;;;;;;;24.75;18.50;;;1.70;82.80;;;-0.49;95.21;94334.34;4934135;28;20028;-67
2021/11/29 02:35:11;;;;;;;25.20;19.00;;;1.70;82.80;;;-0.51;95.03;94339.66;4929606;28;20039;-67
2021/11/29 02:37:37;;;;;;;25.98;18.30;;;1.70;82.80;;;-0.51;95.14;94336.28;4923213;29;20066;-67
2021/11/29 02:40:04;;;;;;;24.25;17.27;;;1.60;83.20;;;-0.51;95.10;94337.09;4918048;29;20530;-67
2021/11/29 02:42:30;;;;;;;27.95;18.90;;;1.60;83.20;;;-0.51;95.35;94338.84;4943025;28;20035;-67
2021/11/29 02:44:55;;;;;;;29.23;19.38;;;1.60;83.20;;;-0.50;95.37;94343.06;4932377;28;20043;-67
2021/11/29 02:47:21;;;;;;;28.55;18.83;;;1.70;83.20;;;-0.52;95.18;94345.81;4939951;28;20039;-67
2021/11/29 02:49:48;;;;;;;24.85;18.42;;;1.70;83.10;;;-0.49;95.16;94349.81;4915006;29;20040;-67
2021/11/29 02:52:15;;;;;;;26.85;18.83;;;1.70;83.30;;;-0.50;95.57;94354.19;4933447;28;20090;-67
2021/11/29 02:54:43;;;;;;;26.95;19.40;;;1.70;83.10;;;-0.51;95.17;94347.41;4922830;28;20471;-67
2021/11/29 02:57:16;;;;;;;25.10;18.92;;;1.70;83.10;;;-0.50;95.39;94354.19;4917074;28;20227;-67
2021/11/29 02:59:42;;;;;;;25.42;19.17;;;1.70;83.10;;;-0.50;95.37;94363.72;4918138;29;20528;-67
2021/11/29 03:02:13;;;;;;;26.17;19.25;;;1.70;83.00;;;-0.50;95.46;94363.72;4934089;28;20123;-67
2021/11/29 03:04:41;;;;;;;26.67;19.52;;;1.70;83.10;;;-0.50;95.84;94371.47;4933505;28;20384;-66
2021/11/29 03:07:06;;;;;;;24.98;18.88;;;1.70;83.30;;;-0.48;95.55;94379.84;4917492;28;20039;-67
2021/11/29 03:09:33;;;;;;;26.25;19.48;;;1.70;83.20;;;-0.49;95.57;94366.13;4937521;28;20039;-67
2021/11/29 03:11:59;;;;;;;26.33;18.35;;;1.70;83.30;;;-0.47;95.53;94384.84;4908217;29;20360;-67
2021/11/29 03:14:24;;;;;;;24.75;18.08;;;1.70;83.20;;;-0.46;95.26;94380.47;4913316;28;20036;-67
2021/11/29 03:16:53;;;;;;;25.92;18.33;;;1.70;83.20;;;-0.45;95.35;94382.13;4917978;28;20123;-68
2021/11/29 03:19:18;;;;;;;27.70;19.52;;;1.70;83.20;;;-0.42;95.80;94384.38;4936796;28;20051;-67
2021/11/29 03:21:44;;;;;;;26.40;19.00;;;1.80;83.20;;;-0.44;95.68;94388.91;4934225;28;20522;-67
2021/11/29 03:24:10;;;;;;;26.55;18.73;;;1.70;83.30;;;-0.44;95.29;94394.06;4927923;28;20543;-67
2021/11/29 03:26:36;;;;;;;25.00;18.48;;;1.70;83.40;;;-0.45;95.70;94392.47;4916014;29;20028;-67
2021/11/29 03:29:10;;;;;;;25.70;18.70;;;1.70;83.50;;;-0.45;95.89;94397.63;4932671;28;20106;-67
2021/11/29 03:31:36;;;;;;;26.73;18.42;;;1.70;83.40;;;-0.45;96.24;94388.09;4918804;29;20050;-67
2021/11/29 03:34:04;;;;;;;26.58;18.55;;;1.80;83.50;;;-0.40;96.06;94395.34;4898889;29;20035;-68
2021/11/29 03:36:32;;;;;;;26.90;19.35;;;1.80;83.40;;;-0.40;96.01;94395.34;4930393;28;20040;-67
2021/11/29 03:38:58;;;;;;;24.67;18.30;;;1.80;83.30;;;-0.37;95.81;94405.34;4903551;28;20533;-67
2021/11/29 03:41:24;;;;;;;28.67;19.40;;;1.90;83.40;;;-0.38;95.91;94396.00;4940287;28;20047;-67
2021/11/29 03:43:50;;;;;;;26.25;18.67;;;1.90;83.10;;;-0.35;96.25;94403.41;4906418;29;20111;-67
2021/11/29 03:46:16;;;;;;;25.15;18.05;;;1.80;83.00;;;-0.34;95.86;94399.84;4923476;29;20168;-67
2021/11/29 03:48:42;;;;;;;26.83;19.23;;;1.90;83.20;;;-0.33;96.02;94406.63;4937879;28;20043;-70
2021/11/29 03:51:07;;;;;;;27.80;19.13;;;1.90;83.00;;;-0.33;96.13;94409.22;4935544;28;20463;-64
2021/11/29 03:53:34;;;;;;;26.33;19.40;;;2.00;83.00;;;-0.30;96.07;94403.72;4905079;29;20600;-68
2021/11/29 03:56:00;;;;;;;37.97;26.85;;;2.00;83.00;;;-0.31;95.63;94405.50;4907742;29;20032;-67
2021/11/29 03:58:25;;;;;;;66.68;44.75;;;2.00;82.90;;;-0.30;95.80;94398.56;4908973;29;20043;-69
2021/11/29 04:00:51;;;;;;;30.08;22.85;;;2.00;83.00;;;-0.26;95.74;94402.41;4929526;28;20075;-71
2021/11/29 04:03:17;;;;;;;28.77;20.95;;;2.10;82.80;;;-0.28;95.74;94399.19;4913672;29;20083;-67
2021/11/29 04:05:43;;;;;;;32.47;23.63;;;1.90;82.40;;;-0.29;95.21;94413.06;4892826;29;20059;-69
2021/11/29 04:08:08;;;;;;;28.63;20.10;;;2.00;82.80;;;-0.28;96.00;94422.44;4927287;28;20035;-67
2021/11/29 04:10:34;;;;;;;26.85;20.08;;;2.00;82.80;;;-0.29;95.40;94417.44;4930058;28;20119;-69
2021/11/29 04:13:00;;;;;;;26.15;19.63;;;1.80;82.80;;;-0.31;95.58;94421.00;4933264;28;20433;-67
2021/11/29 04:15:26;;;;;;;29.60;19.48;;;1.90;82.80;;;-0.32;95.65;94424.53;4931629;28;20058;-66
2021/11/29 04:17:51;;;;;;;29.58;19.90;;;1.90;83.00;;;-0.33;95.89;94427.28;4914039;28;20644;-66
2021/11/29 04:20:17;;;;;;;26.73;19.20;;;1.80;83.00;;;-0.34;95.39;94425.69;4914454;29;20498;-67
2021/11/29 04:22:47;;;;;;;25.08;18.65;;;1.90;82.90;;;-0.32;95.54;94434.06;4916496;29;20445;-67
2021/11/29 04:25:19;;;;;;;30.23;20.48;;;1.80;83.00;;;-0.34;95.61;94436.00;4918023;28;20051;-66
2021/11/29 04:27:45;;;;;;;25.90;19.58;;;1.80;83.00;;;-0.36;95.50;94437.94;4933683;28;20526;-67
2021/11/29 04:30:16;;;;;;;27.30;19.88;;;1.80;83.20;;;-0.36;95.80;94443.13;4933655;28;20104;-67
2021/11/29 04:32:42;;;;;;;36.42;23.60;;;1.80;83.40;;;-0.36;96.13;94443.13;4934050;28;20032;-67
2021/11/29 04:35:08;;;;;;;37.75;25.92;;;1.80;83.50;;;-0.39;96.24;94438.28;4933355;28;20078;-67
2021/11/29 04:37:34;;;;;;;27.20;19.90;;;1.80;83.60;;;-0.40;96.18;94447.00;4934342;28;20062;-67
2021/11/29 04:39:59;;;;;;;27.52;20.02;;;1.70;83.60;;;-0.41;96.24;94443.63;4899830;29;20464;-67
2021/11/29 04:42:25;;;;;;;27.77;20.15;;;1.80;83.60;;;-0.38;96.30;94445.06;4933957;28;20569;-67
2021/11/29 04:44:51;;;;;;;26.58;20.25;;;1.70;83.30;;;-0.39;96.18;94446.84;4933521;28;20465;-67
2021/11/29 04:47:17;;;;;;;26.63;21.05;;;1.80;83.20;;;-0.39;95.55;94446.03;4934024;28;20464;-67
2021/11/29 04:49:42;;;;;;;25.85;20.15;;;1.80;83.30;;;-0.38;96.01;94447.66;4917652;29;20534;-67
2021/11/29 04:52:08;;;;;;;30.55;21.48;;;1.80;83.50;;;-0.38;96.12;94456.19;4933675;28;20060;-67
2021/11/29 04:54:34;;;;;;;25.55;19.50;;;1.80;83.30;;;-0.38;96.10;94460.56;4934842;28;20050;-67
2021/11/29 04:57:00;;;;;;;37.55;23.52;;;1.80;83.20;;;-0.38;96.06;94460.56;4933381;28;20055;-67
2021/11/29 04:59:25;;;;;;;99.45;47.70;;;1.80;83.30;;;-0.37;96.28;94462.16;4933151;28;20043;-67
2021/11/29 05:01:51;;;;;;;98.97;49.08;;;1.80;83.10;;;-0.38;95.78;94470.91;4917002;29;20035;-67
2021/11/29 05:04:17;;;;;;;85.47;42.95;;;1.80;83.40;;;-0.41;96.15;94472.03;4917804;29;20063;-66
2021/11/29 05:06:42;;;;;;;105.32;57.38;;;1.80;83.20;;;-0.39;96.41;94477.84;4917673;29;20072;-69
2021/11/29 05:09:10;;;;;;;49.72;31.85;;;1.80;83.50;;;-0.40;96.37;94488.31;4933155;28;20113;-69
2021/11/29 05:11:36;;;;;;;43.35;28.23;;;1.80;83.60;;;-0.40;96.45;94483.16;4902345;29;20083;-69
2021/11/29 05:14:02;;;;;;;33.50;23.92;;;1.80;83.70;;;-0.36;96.07;94494.78;4933415;28;20068;-69
2021/11/29 05:16:28;;;;;;;33.00;24.38;;;1.80;83.60;;;-0.37;96.18;94493.16;4917545;29;20043;-68
2021/11/29 05:18:54;;;;;;;31.98;22.77;;;1.80;83.50;;;-0.36;95.84;94503.34;4913555;28;20048;-67
2021/11/29 05:21:19;;;;;;;32.42;24.85;;;1.90;83.40;;;-0.35;95.98;94511.88;4924405;28;20089;-68
2021/11/29 05:23:47;;;;;;;38.15;27.38;;;1.90;83.30;;;-0.35;95.94;94507.53;4933132;28;20040;-68
2021/11/29 05:26:17;;;;;;;34.05;22.98;;;1.90;83.40;;;-0.33;96.12;94509.94;4917988;29;20120;-70
2021/11/29 05:28:43;;;;;;;58.00;35.08;;;1.90;83.50;;;-0.33;96.59;94515.13;4932809;29;20043;-69
2021/11/29 05:31:08;;;;;;;32.42;24.48;;;1.90;83.40;;;-0.31;96.15;94513.19;4915925;28;20134;-67
2021/11/29 05:33:34;;;;;;;27.00;20.52;;;1.90;83.10;;;-0.31;96.32;94518.34;4924450;28;20039;-66
2021/11/29 05:36:00;;;;;;;27.05;19.05;;;1.90;83.20;;;-0.28;96.18;94520.59;4932428;28;20542;-66
2021/11/29 05:38:26;;;;;;;27.05;18.50;;;2.00;83.10;;;-0.29;96.25;94526.75;4932670;28;20031;-66
2021/11/29 05:40:51;;;;;;;27.15;19.13;;;1.90;82.80;;;-0.31;96.12;94524.31;4917432;28;21031;-67
2021/11/29 05:43:17;;;;;;;26.38;18.83;;;1.90;82.70;;;-0.30;95.85;94530.28;4885870;29;20039;-65
2021/11/29 05:45:43;;;;;;;23.52;17.77;;;1.80;82.80;;;-0.30;95.87;94535.47;4933262;28;20039;-64
2021/11/29 05:48:08;;;;;;;22.10;17.17;;;1.80;82.90;;;-0.29;95.95;94539.66;4940336;28;20039;-64
2021/11/29 05:50:34;;;;;;;24.95;17.90;;;1.90;83.00;;;-0.28;96.05;94546.44;4908144;29;20056;-65
2021/11/29 05:53:00;;;;;;;23.98;17.52;;;1.90;82.80;;;-0.29;95.47;94557.75;4929007;28;20541;-65
2021/11/29 05:55:26;;;;;;;23.38;17.05;;;1.80;82.50;;;-0.33;95.42;94548.69;4914048;29;20056;-65
2021/11/29 05:57:52;;;;;;;22.50;16.98;;;1.90;82.70;;;-0.29;95.82;94560.31;4926627;28;20040;-65
2021/11/29 06:00:18;;;;;;;23.33;17.30;;;1.90;82.50;;;-0.31;95.55;94554.50;4915883;29;20046;-67
2021/11/29 06:02:44;;;;;;;23.00;16.55;;;1.90;82.30;;;-0.29;95.02;94562.91;4918956;29;20035;-66
2021/11/29 06:05:11;;;;;;;24.52;16.77;;;1.90;82.50;;;-0.26;95.04;94569.53;4900499;28;20124;-67
2021/11/29 06:07:36;;;;;;;30.33;21.17;;;2.00;82.40;;;-0.28;95.13;94574.84;4900257;29;20071;-66
2021/11/29 06:10:04;;;;;;;31.95;23.50;;;1.90;82.30;;;-0.26;95.83;94572.09;4932416;28;20477;-67
2021/11/29 06:12:29;;;;;;;24.23;18.45;;;1.90;82.70;;;-0.26;95.26;94575.50;4935197;28;20032;-66
2021/11/29 06:14:55;;;;;;;23.83;17.10;;;1.90;82.50;;;-0.26;95.41;94588.41;4936405;28;20036;-68
2021/11/29 06:17:21;;;;;;;24.23;15.80;;;1.90;82.60;;;-0.28;95.24;94587.78;4937515;28;20059;-67
2021/11/29 06:19:46;;;;;;;22.35;15.88;;;1.80;82.50;;;-0.27;95.31;94586.81;4933126;28;20040;-66
2021/11/29 06:22:12;;;;;;;24.48;16.73;;;1.90;82.60;;;-0.27;95.33;94602.31;4898659;29;20154;-69
2021/11/29 06:24:38;;;;;;;25.08;17.92;;;1.90;82.60;;;-0.30;94.76;94597.47;4932620;28;20114;-69
2021/11/29 06:27:04;;;;;;;20.60;15.55;;;1.90;82.60;;;-0.27;94.80;94609.25;4915607;28;20107;-66
2021/11/29 06:29:30;;;;;;;19.13;15.63;;;1.90;82.60;;;-0.28;95.05;94611.03;4932101;28;20031;-67
2021/11/29 06:31:55;;;;;;;26.88;19.42;;;2.00;82.50;;;-0.27;94.85;94620.38;4914762;29;20035;-66
2021/11/29 06:34:21;;;;;;;38.50;25.73;;;1.80;82.70;;;-0.27;95.04;94622.97;4932963;28;20040;-67
2021/11/29 06:36:48;;;;;;;28.75;20.77;;;1.80;83.10;;;-0.26;95.79;94628.94;4931600;28;20035;-68
2021/11/29 06:39:15;;;;;;;21.08;16.63;;;1.80;83.10;;;-0.26;95.29;94634.09;4916398;29;20046;-66
2021/11/29 06:41:42;;;;;;;20.38;14.93;;;1.80;83.00;;;-0.25;95.02;94640.88;4909335;29;20047;-68
2021/11/29 06:44:07;;;;;;;21.85;15.75;;;1.80;83.10;;;-0.26;94.90;94639.28;4914342;29;20496;-67
2021/11/29 06:46:33;;;;;;;21.73;15.52;;;1.80;83.10;;;-0.26;95.06;94645.25;4932854;28;20039;-67
2021/11/29 06:48:59;;;;;;;22.63;15.77;;;1.80;83.20;;;-0.24;95.02;94648.47;4932163;28;20023;-68
2021/11/29 06:51:26;;;;;;;21.70;16.20;;;1.90;83.00;;;-0.21;95.39;94655.13;4929730;28;20043;-69
2021/11/29 06:53:52;;;;;;;20.70;15.30;;;1.90;83.00;;;-0.30;95.14;94649.13;4921854;28;20043;-66
2021/11/29 06:56:18;;;;;;;20.90;15.85;;;1.90;82.90;;;-0.22;95.09;94662.09;4917756;29;20058;-67
2021/11/29 06:58:44;;;;;;;21.65;15.38;;;1.90;82.60;;;-0.22;95.31;94656.91;4931981;29;20083;-68
2021/11/29 07:01:09;;;;;;;21.70;15.93;;;2.00;82.70;;;-0.21;95.39;94663.69;4930635;28;20051;-65
2021/11/29 07:03:35;;;;;;;21.17;16.23;;;2.00;82.60;;;-0.17;95.59;94670.16;4920046;28;20062;-68
2021/11/29 07:06:02;;;;;;;23.00;16.33;;;2.10;82.60;;;-0.16;95.17;94671.78;4916264;29;20090;-63
2021/11/29 07:08:28;;;;;;;23.23;15.77;;;2.00;82.90;;;-0.14;95.04;94672.41;4930042;28;20058;-68
2021/11/29 07:10:53;;;;;;;23.05;16.40;;;1.90;82.60;;;-0.14;95.11;94675.00;4892698;28;20118;-67
2021/11/29 07:13:19;;;;;;;22.90;16.95;;;2.00;83.10;;;-0.10;95.90;94681.47;4901311;29;20050;-67
2021/11/29 07:15:45;;;;;;;21.73;16.30;;;2.00;83.00;;;-0.08;95.92;94679.53;4934258;28;20328;-67
2021/11/29 07:18:13;;;;;;;20.00;15.43;;;2.10;83.30;;;-0.05;95.31;94679.22;4899078;29;20056;-67
2021/11/29 07:20:38;;;;;;;19.83;15.10;;;2.10;82.90;;;-0.03;95.51;94682.44;4899588;29;20036;-67
2021/11/29 07:23:04;;;;;;;22.60;15.65;;;2.20;82.90;;;0.02;95.74;94688.94;4913886;28;20194;-65
2021/11/29 07:25:30;;;;;;;21.80;16.23;;;2.20;82.90;;;0.05;95.46;94689.44;4899530;29;20036;-69
2021/11/29 07:27:56;;;;;;;23.58;16.38;;;2.20;82.50;;;0.05;95.76;94698.97;4915352;29;20685;-67
2021/11/29 07:30:23;;;;;;;25.45;16.50;;;2.10;82.90;;;0.06;95.54;94696.22;4932419;28;20043;-67
2021/11/29 07:32:49;;;;;;;24.95;17.30;;;2.20;82.90;;;0.06;95.86;94705.75;4915367;28;20027;-67
2021/11/29 07:35:15;;;;;;;22.73;17.77;;;2.10;83.30;;;0.07;95.67;94702.19;4931309;28;20050;-66
2021/11/29 07:37:42;;;;;;;20.77;16.05;;;2.20;83.40;;;0.09;95.73;94705.41;4914612;29;20067;-67
2021/11/29 07:40:08;;;;;;;18.33;15.13;;;2.20;83.30;;;0.07;96.21;94712.53;4901601;29;20033;-65
2021/11/29 07:42:34;;;;;;;20.75;15.85;;;2.20;83.60;;;0.07;95.73;94717.69;4941835;28;20023;-68
2021/11/29 07:44:59;;;;;;;23.83;16.63;;;2.10;83.80;;;0.05;95.88;94714.47;4940792;28;20047;-68
2021/11/29 07:47:25;;;;;;;26.35;16.23;;;2.10;83.90;;;0.09;96.31;94720.94;4928266;28;20178;-68
2021/11/29 07:49:52;;;;;;;23.15;16.23;;;2.20;83.60;;;0.11;96.01;94719.81;4884298;29;20044;-67
2021/11/29 07:52:18;;;;;;;23.15;16.63;;;2.40;83.30;;;0.11;95.96;94719.00;4926900;29;20036;-66
2021/11/29 07:54:44;;;;;;;21.92;16.42;;;2.40;83.30;;;0.13;96.14;94727.41;4932825;28;20047;-67
2021/11/29 07:57:12;;;;;;;24.33;17.88;;;2.50;82.70;;;0.15;96.33;94731.44;4933792;28;20527;-67
2021/11/29 07:59:38;;;;;;;22.80;16.48;;;2.40;82.70;;;0.18;96.22;94725.13;4916913;29;20036;-67
2021/11/29 08:02:03;;;;;;;23.23;16.40;;;2.40;82.60;;;0.12;95.46;94723.19;4933493;28;20128;-69
2021/11/29 08:04:29;;;;;;;22.23;16.83;;;2.60;82.20;;;0.22;95.95;94736.78;4935815;28;20028;-68
2021/11/29 08:06:55;;;;;;;23.02;16.67;;;2.60;82.30;;;0.31;95.70;94741.00;4934363;28;20063;-68
2021/11/29 08:09:21;;;;;;;23.13;15.93;;;2.60;81.90;;;0.38;96.36;94743.75;4883751;29;20032;-67
2021/11/29 08:11:46;;;;;;;21.48;16.08;;;2.80;81.70;;;0.43;95.73;94759.59;4931542;28;20043;-68
2021/11/29 08:14:12;;;;;;;24.92;16.35;;;2.70;81.30;;;0.33;95.20;94744.25;4918542;29;20047;-67
2021/11/29 08:16:38;;;;;;;21.10;15.98;;;2.60;81.50;;;0.40;94.88;94765.91;4934728;28;20411;-68
2021/11/29 08:19:04;;;;;;;22.23;16.17;;;2.60;81.60;;;0.44;94.84;94772.38;4932862;28;20063;-72
2021/11/29 08:21:29;;;;;;;24.70;15.50;;;2.70;81.50;;;0.47;95.06;94766.91;4932667;28;20126;-68
2021/11/29 08:23:55;;;;;;;22.13;15.65;;;2.90;81.00;;;0.49;94.96;94767.56;4933283;29;20028;-65
2021/11/29 08:26:21;;;;;;;21.58;15.85;;;2.90;80.50;;;0.51;94.84;94778.53;4902657;29;20058;-65
2021/11/29 08:28:47;;;;;;;22.95;15.63;;;2.80;80.10;;;0.52;94.61;94784.53;4934222;28;20527;-65
2021/11/29 08:31:12;;;;;;;22.00;16.05;;;2.80;80.50;;;0.56;93.50;94785.81;4933466;28;20047;-64
2021/11/29 08:33:38;;;;;;;21.80;15.90;;;2.80;80.10;;;0.54;93.25;94785.97;4935041;28;20040;-65
2021/11/29 08:36:04;;;;;;;23.70;16.10;;;2.70;80.20;;;0.55;93.82;94794.56;4918084;28;20093;-65
2021/11/29 08:38:32;;;;;;;22.65;16.10;;;2.80;80.10;;;0.54;93.98;94793.75;4917754;29;20040;-64
2021/11/29 08:40:58;;;;;;;23.05;16.00;;;2.70;80.10;;;0.56;93.47;94802.16;4912913;28;20445;-65
2021/11/29 08:43:23;;;;;;;20.50;15.32;;;2.80;80.10;;;0.59;93.64;94803.59;4898877;28;20044;-65
2021/11/29 08:45:51;;;;;;;22.08;16.52;;;2.90;79.70;;;0.60;92.63;94808.63;4914955;28;20033;-65
2021/11/29 08:48:17;;;;;;;22.42;15.55;;;2.90;79.60;;;0.62;93.31;94808.47;4927153;29;20150;-65
2021/11/29 08:50:45;;;;;;;21.08;14.88;;;3.10;79.30;;;0.64;93.46;94810.88;4917848;29;20388;-65
2021/11/29 08:53:13;;;;;;;20.48;15.40;;;3.10;79.30;;;0.66;93.25;94811.53;4932139;28;20123;-65
2021/11/29 08:55:39;;;;;;;22.17;15.80;;;3.10;79.20;;;0.69;93.19;94812.03;4933496;28;20032;-65
2021/11/29 08:58:06;;;;;;;20.05;14.88;;;3.00;79.40;;;0.74;92.76;94820.13;4933477;28;20099;-65
2021/11/29 09:00:32;;;;;;;21.60;14.80;;;3.00;79.00;;;0.76;92.56;94828.53;4933384;28;20193;-65
2021/11/29 09:02:59;;;;;;;18.30;13.82;;;3.10;79.20;;;0.78;92.35;94826.59;4916411;28;20028;-65
2021/11/29 09:05:25;;;;;;;19.45;14.30;;;3.10;78.90;;;0.81;92.55;94833.22;4902313;29;20423;-65
2021/11/29 09:07:51;;;;;;;17.48;13.48;;;3.10;78.80;;;0.81;92.15;94830.66;4901141;29;20040;-65
2021/11/29 09:10:17;;;;;;;20.17;14.23;;;2.90;78.30;;;0.80;91.55;94839.38;4901400;29;20040;-65
2021/11/29 09:12:42;;;;;;;20.27;14.25;;;2.90;78.60;;;0.82;91.99;94845.19;4934240;28;20028;-64
2021/11/29 09:15:11;;;;;;;19.25;14.13;;;3.00;78.70;;;0.81;91.54;94846.19;4916631;28;20035;-65
2021/11/29 09:17:37;;;;;;;19.35;14.48;;;3.00;78.40;;;0.84;91.97;94846.66;4917523;29;20031;-65
2021/11/29 09:20:09;;;;;;;19.92;14.45;;;3.10;78.20;;;0.84;91.16;94844.06;4932358;29;20036;-65
2021/11/29 09:22:34;;;;;;;;;;;3.10;78.10;;;0.90;90.50;94851.19;4917100;29;20419;-65
2021/11/29 09:25:00;;;;;;;22.02;15.07;;;3.30;77.70;;;0.94;91.46;94862.06;4932113;28;19914;-64
2021/11/29 09:27:27;;;;;;;18.67;14.70;;;3.40;77.30;;;0.99;90.76;94862.38;4917469;29;20397;-65
2021/11/29 09:29:53;;;;;;;22.02;15.32;;;3.40;77.20;;;1.03;90.84;94855.91;4932779;29;20400;-65
2021/11/29 09:32:19;;;;;;;23.27;15.90;;;3.50;76.80;;;1.12;90.57;94860.09;4932100;28;20043;-65
2021/11/29 09:34:47;;;;;;;20.23;15.55;;;3.70;76.60;;;1.21;90.93;94859.16;4916963;29;20035;-65
2021/11/29 09:37:13;;;;;;;19.63;14.73;;;3.90;75.70;;;1.33;90.92;94857.03;4931189;28;20062;-65
2021/11/29 09:39:39;;;;;;;21.15;15.77;;;4.30;75.00;;;1.44;90.08;94859.31;4916836;29;20030;-64
2021/11/29 09:42:06;;;;;;;19.50;14.52;;;4.30;73.20;;;1.53;90.05;94852.31;4931350;28;20408;-64
2021/11/29 09:44:31;;;;;;;19.20;14.00;;;4.30;73.40;;;1.65;89.57;94855.41;4916479;29;20512;-65
2021/11/29 09:46:57;;;;;;;19.25;14.50;;;4.50;72.70;;;1.76;89.66;94853.25;4916595;28;20098;-64
2021/11/29 09:49:23;;;;;;;20.67;15.23;;;4.60;72.60;;;1.84;88.77;94862.81;4916526;29;20071;-65
2021/11/29 09:51:49;;;;;;;18.77;15.20;;;4.40;73.10;;;1.90;88.55;94859.56;4926581;28;20044;-67
2021/11/29 09:54:15;;;;;;;20.75;15.82;;;4.30;72.80;;;1.91;88.32;94863.75;4913026;29;20044;-67
2021/11/29 09:56:40;;;;;;;21.00;16.70;;;4.30;73.50;;;1.95;88.56;94866.81;4917051;29;21779;-66
2021/11/29 09:59:06;;;;;;;20.88;16.25;;;4.50;73.00;;;1.97;87.40;94864.88;4932879;28;20518;-68
2021/11/29 10:01:32;;;;;;;20.85;16.73;;;4.40;72.60;;;1.97;87.27;94854.50;4933167;28;20091;-68
2021/11/29 10:03:57;;;;;;;21.75;16.35;;;4.30;73.20;;;1.94;87.37;94860.03;4930694;29;20130;-70
2021/11/29 10:06:23;;;;;;;21.08;17.10;;;4.20;73.20;;;1.97;86.93;94859.69;4916254;29;20063;-68
2021/11/29 10:08:50;;;;;;;20.98;16.40;;;4.30;73.30;;;2.00;87.43;94864.53;4922862;28;20039;-67
2021/11/29 10:11:17;;;;;;;23.38;17.65;;;4.40;73.30;;;2.03;87.15;94864.19;4931751;29;20586;-68